createdAt,value
2018-09-09T00:00:01.128Z,1013.39
2018-09-09T00:00:36.339Z,1013.34
2018-09-09T00:01:11.937Z,1013.33
2018-09-09T00:01:47.372Z,1013.35
2018-09-09T00:02:22.983Z,1013.34
2018-09-09T00:02:58.205Z,1013.34
2018-09-09T00:03:33.444Z,1013.37
2018-09-09T00:04:09.134Z,1013.35
2018-09-09T00:04:44.580Z,1013.32
2018-09-09T00:05:20.210Z,1013.34
2018-09-09T00:05:55.452Z,1013.36
2018-09-09T00:06:30.651Z,1013.35
2018-09-09T00:07:05.912Z,1013.36
2018-09-09T00:07:41.456Z,1013.33
2018-09-09T00:08:16.586Z,1013.37
2018-09-09T00:08:52.151Z,1013.36
2018-09-09T00:09:27.571Z,1013.33
2018-09-09T00:10:02.929Z,1013.38
2018-09-09T00:10:38.294Z,1013.37
2018-09-09T00:11:13.598Z,1013.39
2018-09-09T00:11:49.043Z,1013.39
2018-09-09T00:12:24.460Z,1013.42
2018-09-09T00:13:00.019Z,1013.41
2018-09-09T00:13:35.426Z,1013.44
2018-09-09T00:14:10.647Z,1013.45
2018-09-09T00:14:45.992Z,1013.43
2018-09-09T00:15:21.346Z,1013.46
2018-09-09T00:15:56.644Z,1013.44
2018-09-09T00:16:32.077Z,1013.43
2018-09-09T00:17:07.345Z,1013.45
2018-09-09T00:17:42.677Z,1013.45
2018-09-09T00:18:17.976Z,1013.49
2018-09-09T00:18:53.238Z,1013.49
2018-09-09T00:19:28.752Z,1013.48
2018-09-09T00:20:03.979Z,1013.50
2018-09-09T00:20:39.470Z,1013.43
2018-09-09T00:21:14.829Z,1013.45
2018-09-09T00:21:50.133Z,1013.44
2018-09-09T00:22:25.222Z,1013.41
2018-09-09T00:23:01.253Z,1013.43
2018-09-09T00:23:36.407Z,1013.44
2018-09-09T00:24:12.114Z,1013.43
2018-09-09T00:24:47.767Z,1013.44
2018-09-09T00:25:23.075Z,1013.40
2018-09-09T00:25:58.543Z,1013.42
2018-09-09T00:26:33.803Z,1013.47
2018-09-09T00:27:09.209Z,1013.41
2018-09-09T00:27:44.384Z,1013.37
2018-09-09T00:28:19.610Z,1013.36
2018-09-09T00:28:54.958Z,1013.43
2018-09-09T00:29:30.311Z,1013.43
2018-09-09T00:30:05.713Z,1013.45
2018-09-09T00:30:41.008Z,1013.42
2018-09-09T00:31:16.458Z,1013.42
2018-09-09T00:31:52.123Z,1013.41
2018-09-09T00:32:27.589Z,1013.40
2018-09-09T00:33:03.031Z,1013.36
2018-09-09T00:33:38.363Z,1013.39
2018-09-09T00:34:13.544Z,1013.36
2018-09-09T00:34:48.969Z,1013.37
2018-09-09T00:35:24.677Z,1013.40
2018-09-09T00:35:59.944Z,1013.38
2018-09-09T00:36:35.181Z,1013.37
2018-09-09T00:37:10.554Z,1013.39
2018-09-09T00:37:46.118Z,1013.44
2018-09-09T00:38:21.461Z,1013.41
2018-09-09T00:38:57.359Z,1013.39
2018-09-09T00:39:32.667Z,1013.38
2018-09-09T00:40:07.994Z,1013.39
2018-09-09T00:40:43.341Z,1013.37
2018-09-09T00:41:18.757Z,1013.38
2018-09-09T00:41:54.097Z,1013.36
2018-09-09T00:42:29.737Z,1013.35
2018-09-09T00:43:04.984Z,1013.34
2018-09-09T00:43:40.226Z,1013.34
2018-09-09T00:44:15.531Z,1013.37
2018-09-09T00:44:50.674Z,1013.37
2018-09-09T00:45:25.988Z,1013.38
2018-09-09T00:46:01.937Z,1013.40
2018-09-09T00:46:37.172Z,1013.40
2018-09-09T00:47:12.908Z,1013.41
2018-09-09T00:47:48.249Z,1013.40
2018-09-09T00:48:23.507Z,1013.42
2018-09-09T00:48:58.764Z,1013.43
2018-09-09T00:49:33.874Z,1013.41
2018-09-09T00:50:09.117Z,1013.42
2018-09-09T00:50:44.332Z,1013.41
2018-09-09T00:51:19.648Z,1013.43
2018-09-09T00:51:54.853Z,1013.44
2018-09-09T00:52:30.057Z,1013.36
2018-09-09T00:53:05.648Z,1013.40
2018-09-09T00:53:41.377Z,1013.37
2018-09-09T00:54:16.608Z,1013.35
2018-09-09T00:54:51.834Z,1013.37
2018-09-09T00:55:27.180Z,1013.39
2018-09-09T00:56:02.422Z,1013.40
2018-09-09T00:56:37.846Z,1013.36
2018-09-09T00:57:13.393Z,1013.36
2018-09-09T00:57:49.042Z,1013.37
2018-09-09T00:58:24.361Z,1013.37
2018-09-09T00:58:59.988Z,1013.39
2018-09-09T00:59:35.495Z,1013.40
2018-09-09T01:00:10.834Z,1013.43
2018-09-09T01:00:46.232Z,1013.40
2018-09-09T01:01:21.561Z,1013.41
2018-09-09T01:01:57.115Z,1013.40
2018-09-09T01:02:32.341Z,1013.43
2018-09-09T01:03:07.682Z,1013.40
2018-09-09T01:03:43.100Z,1013.41
2018-09-09T01:04:18.844Z,1013.38
2018-09-09T01:04:54.301Z,1013.40
2018-09-09T01:05:29.613Z,1013.37
2018-09-09T01:06:05.042Z,1013.35
2018-09-09T01:06:40.549Z,1013.32
2018-09-09T01:07:16.021Z,1013.37
2018-09-09T01:07:51.456Z,1013.37
2018-09-09T01:08:26.888Z,1013.36
2018-09-09T01:09:02.160Z,1013.38
2018-09-09T01:09:39.065Z,1013.41
2018-09-09T01:10:14.223Z,1013.38
2018-09-09T01:10:49.830Z,1013.41
2018-09-09T01:11:24.971Z,1013.35
2018-09-09T01:12:00.206Z,1013.36
2018-09-09T01:12:35.627Z,1013.39
2018-09-09T01:13:10.847Z,1013.39
2018-09-09T01:13:46.173Z,1013.34
2018-09-09T01:14:21.663Z,1013.34
2018-09-09T01:14:57.224Z,1013.35
2018-09-09T01:15:32.461Z,1013.37
2018-09-09T01:16:07.899Z,1013.37
2018-09-09T01:16:43.331Z,1013.39
2018-09-09T01:17:18.779Z,1013.39
2018-09-09T01:17:54.345Z,1013.35
2018-09-09T01:18:29.548Z,1013.37
2018-09-09T01:19:05.107Z,1013.35
2018-09-09T01:19:40.376Z,1013.39
2018-09-09T01:20:16.040Z,1013.32
2018-09-09T01:20:51.150Z,1013.34
2018-09-09T01:21:27.114Z,1013.32
2018-09-09T01:22:02.455Z,1013.32
2018-09-09T01:22:38.078Z,1013.29
2018-09-09T01:23:13.508Z,1013.31
2018-09-09T01:23:48.824Z,1013.30
2018-09-09T01:24:24.251Z,1013.31
2018-09-09T01:24:59.726Z,1013.31
2018-09-09T01:25:34.959Z,1013.33
2018-09-09T01:26:10.592Z,1013.33
2018-09-09T01:26:45.908Z,1013.29
2018-09-09T01:27:21.371Z,1013.35
2018-09-09T01:27:56.610Z,1013.33
2018-09-09T01:28:31.961Z,1013.31
2018-09-09T01:29:07.413Z,1013.30
2018-09-09T01:29:42.877Z,1013.29
2018-09-09T01:30:18.056Z,1013.30
2018-09-09T01:30:53.229Z,1013.30
2018-09-09T01:31:28.570Z,1013.31
2018-09-09T01:32:04.016Z,1013.32
2018-09-09T01:32:39.402Z,1013.32
2018-09-09T01:33:14.741Z,1013.36
2018-09-09T01:33:50.193Z,1013.32
2018-09-09T01:34:25.553Z,1013.37
2018-09-09T01:35:00.905Z,1013.32
2018-09-09T01:35:36.400Z,1013.33
2018-09-09T01:36:11.640Z,1013.31
2018-09-09T01:36:46.938Z,1013.26
2018-09-09T01:37:22.472Z,1013.23
2018-09-09T01:37:57.800Z,1013.24
2018-09-09T01:38:33.218Z,1013.27
2018-09-09T01:39:08.658Z,1013.22
2018-09-09T01:39:43.892Z,1013.24
2018-09-09T01:40:19.424Z,1013.28
2018-09-09T01:40:54.685Z,1013.24
2018-09-09T01:41:29.998Z,1013.26
2018-09-09T01:42:05.306Z,1013.26
2018-09-09T01:42:40.616Z,1013.26
2018-09-09T01:43:15.946Z,1013.28
2018-09-09T01:43:51.470Z,1013.25
2018-09-09T01:44:26.521Z,1013.32
2018-09-09T01:45:01.850Z,1013.28
2018-09-09T01:45:37.497Z,1013.34
2018-09-09T01:46:13.091Z,1013.31
2018-09-09T01:46:48.738Z,1013.32
2018-09-09T01:47:24.049Z,1013.33
2018-09-09T01:47:59.245Z,1013.32
2018-09-09T01:48:34.765Z,1013.33
2018-09-09T01:49:10.300Z,1013.30
2018-09-09T01:49:45.824Z,1013.29
2018-09-09T01:50:21.175Z,1013.25
2018-09-09T01:50:56.798Z,1013.31
2018-09-09T01:51:32.151Z,1013.30
2018-09-09T01:52:07.199Z,1013.30
2018-09-09T01:52:42.528Z,1013.33
2018-09-09T01:53:17.772Z,1013.33
2018-09-09T01:53:53.000Z,1013.35
2018-09-09T01:54:28.564Z,1013.36
2018-09-09T01:55:03.842Z,1013.37
2018-09-09T01:55:39.079Z,1013.35
2018-09-09T01:56:14.509Z,1013.35
2018-09-09T01:56:49.886Z,1013.34
2018-09-09T01:57:25.244Z,1013.31
2018-09-09T01:58:00.560Z,1013.29
2018-09-09T01:58:35.879Z,1013.32
2018-09-09T01:59:11.324Z,1013.32
2018-09-09T01:59:46.761Z,1013.28
2018-09-09T02:00:22.202Z,1013.30
2018-09-09T02:00:57.431Z,1013.26
2018-09-09T02:01:32.692Z,1013.32
2018-09-09T02:02:08.057Z,1013.32
2018-09-09T02:02:43.705Z,1013.26
2018-09-09T02:03:18.836Z,1013.26
2018-09-09T02:03:54.370Z,1013.28
2018-09-09T02:04:29.853Z,1013.28
2018-09-09T02:05:04.985Z,1013.26
2018-09-09T02:05:40.310Z,1013.32
2018-09-09T02:06:15.505Z,1013.31
2018-09-09T02:06:50.858Z,1013.29
2018-09-09T02:07:26.214Z,1013.31
2018-09-09T02:08:01.835Z,1013.28
2018-09-09T02:08:37.377Z,1013.31
2018-09-09T02:09:12.612Z,1013.32
2018-09-09T02:09:48.059Z,1013.32
2018-09-09T02:10:23.273Z,1013.34
2018-09-09T02:10:58.557Z,1013.32
2018-09-09T02:11:34.114Z,1013.32
2018-09-09T02:12:09.589Z,1013.34
2018-09-09T02:12:44.799Z,1013.34
2018-09-09T02:13:20.059Z,1013.38
2018-09-09T02:13:55.181Z,1013.36
2018-09-09T02:14:30.745Z,1013.36
2018-09-09T02:15:06.404Z,1013.42
2018-09-09T02:15:41.597Z,1013.40
2018-09-09T02:16:16.821Z,1013.43
2018-09-09T02:16:52.090Z,1013.42
2018-09-09T02:17:27.800Z,1013.41
2018-09-09T02:18:02.844Z,1013.41
2018-09-09T02:18:38.016Z,1013.39
2018-09-09T02:19:13.490Z,1013.36
2018-09-09T02:19:48.578Z,1013.36
2018-09-09T02:20:23.976Z,1013.34
2018-09-09T02:20:59.283Z,1013.33
2018-09-09T02:21:34.716Z,1013.33
2018-09-09T02:22:10.076Z,1013.30
2018-09-09T02:22:45.582Z,1013.34
2018-09-09T02:23:20.979Z,1013.25
2018-09-09T02:23:56.304Z,1013.25
2018-09-09T02:24:31.632Z,1013.25
2018-09-09T02:25:07.604Z,1013.25
2018-09-09T02:25:43.004Z,1013.27
2018-09-09T02:26:18.561Z,1013.24
2018-09-09T02:26:53.977Z,1013.24
2018-09-09T02:27:29.221Z,1013.26
2018-09-09T02:28:04.972Z,1013.30
2018-09-09T02:28:40.424Z,1013.33
2018-09-09T02:29:15.866Z,1013.31
2018-09-09T02:29:51.406Z,1013.32
2018-09-09T02:30:26.874Z,1013.32
2018-09-09T02:31:02.196Z,1013.30
2018-09-09T02:31:37.603Z,1013.30
2018-09-09T02:32:13.002Z,1013.31
2018-09-09T02:32:48.557Z,1013.35
2018-09-09T02:33:23.819Z,1013.34
2018-09-09T02:33:59.024Z,1013.34
2018-09-09T02:34:34.639Z,1013.38
2018-09-09T02:35:09.846Z,1013.34
2018-09-09T02:35:45.079Z,1013.36
2018-09-09T02:36:20.298Z,1013.33
2018-09-09T02:36:55.337Z,1013.33
2018-09-09T02:37:30.849Z,1013.32
2018-09-09T02:38:06.409Z,1013.32
2018-09-09T02:38:41.692Z,1013.36
2018-09-09T02:39:17.254Z,1013.37
2018-09-09T02:39:52.774Z,1013.38
2018-09-09T02:40:27.927Z,1013.40
2018-09-09T02:41:03.072Z,1013.43
2018-09-09T02:41:38.409Z,1013.39
2018-09-09T02:42:13.712Z,1013.40
2018-09-09T02:42:48.973Z,1013.36
2018-09-09T02:43:24.399Z,1013.35
2018-09-09T02:44:00.022Z,1013.34
2018-09-09T02:44:35.759Z,1013.38
2018-09-09T02:45:11.080Z,1013.37
2018-09-09T02:45:46.422Z,1013.34
2018-09-09T02:46:21.754Z,1013.36
2018-09-09T02:46:57.038Z,1013.34
2018-09-09T02:47:32.551Z,1013.39
2018-09-09T02:48:07.763Z,1013.35
2018-09-09T02:48:43.020Z,1013.33
2018-09-09T02:49:18.451Z,1013.32
2018-09-09T02:49:53.698Z,1013.35
2018-09-09T02:50:29.032Z,1013.30
2018-09-09T02:51:04.384Z,1013.32
2018-09-09T02:51:39.736Z,1013.26
2018-09-09T02:52:14.969Z,1013.29
2018-09-09T02:52:50.184Z,1013.29
2018-09-09T02:53:25.719Z,1013.27
2018-09-09T02:54:01.345Z,1013.25
2018-09-09T02:54:36.609Z,1013.26
2018-09-09T02:55:12.192Z,1013.25
2018-09-09T02:55:47.673Z,1013.27
2018-09-09T02:56:23.296Z,1013.22
2018-09-09T02:56:58.725Z,1013.25
2018-09-09T02:57:34.015Z,1013.27
2018-09-09T02:58:09.189Z,1013.22
2018-09-09T02:58:44.526Z,1013.26
2018-09-09T02:59:19.967Z,1013.23
2018-09-09T02:59:55.416Z,1013.26
2018-09-09T03:00:30.657Z,1013.24
2018-09-09T03:01:05.912Z,1013.24
2018-09-09T03:01:41.500Z,1013.23
2018-09-09T03:02:16.733Z,1013.29
2018-09-09T03:02:51.871Z,1013.27
2018-09-09T03:03:27.587Z,1013.26
2018-09-09T03:04:02.632Z,1013.30
2018-09-09T03:04:37.933Z,1013.32
2018-09-09T03:05:13.275Z,1013.33
2018-09-09T03:05:48.799Z,1013.34
2018-09-09T03:06:24.162Z,1013.32
2018-09-09T03:06:59.592Z,1013.36
2018-09-09T03:07:35.031Z,1013.37
2018-09-09T03:08:10.513Z,1013.36
2018-09-09T03:08:45.711Z,1013.40
2018-09-09T03:09:21.418Z,1013.36
2018-09-09T03:09:56.758Z,1013.39
2018-09-09T03:10:32.136Z,1013.39
2018-09-09T03:11:07.543Z,1013.39
2018-09-09T03:11:42.937Z,1013.38
2018-09-09T03:12:18.375Z,1013.37
2018-09-09T03:12:53.654Z,1013.37
2018-09-09T03:13:28.915Z,1013.37
2018-09-09T03:14:04.226Z,1013.38
2018-09-09T03:14:39.687Z,1013.36
2018-09-09T03:15:15.111Z,1013.35
2018-09-09T03:15:50.892Z,1013.32
2018-09-09T03:16:26.435Z,1013.29
2018-09-09T03:17:01.856Z,1013.31
2018-09-09T03:17:37.198Z,1013.34
2018-09-09T03:18:12.332Z,1013.33
2018-09-09T03:18:47.766Z,1013.35
2018-09-09T03:19:23.121Z,1013.38
2018-09-09T03:19:58.707Z,1013.39
2018-09-09T03:20:34.112Z,1013.41
2018-09-09T03:21:09.624Z,1013.40
2018-09-09T03:21:44.963Z,1013.43
2018-09-09T03:22:20.456Z,1013.43
2018-09-09T03:22:55.792Z,1013.41
2018-09-09T03:23:31.218Z,1013.39
2018-09-09T03:24:06.358Z,1013.39
2018-09-09T03:24:41.736Z,1013.40
2018-09-09T03:25:17.242Z,1013.38
2018-09-09T03:25:52.526Z,1013.43
2018-09-09T03:26:27.832Z,1013.37
2018-09-09T03:27:03.082Z,1013.40
2018-09-09T03:27:38.724Z,1013.40
2018-09-09T03:28:14.060Z,1013.39
2018-09-09T03:28:49.594Z,1013.42
2018-09-09T03:29:24.992Z,1013.42
2018-09-09T03:30:00.914Z,1013.39
2018-09-09T03:30:36.224Z,1013.40
2018-09-09T03:31:11.804Z,1013.38
2018-09-09T03:31:47.259Z,1013.38
2018-09-09T03:32:22.508Z,1013.34
2018-09-09T03:32:57.841Z,1013.32
2018-09-09T03:33:33.192Z,1013.28
2018-09-09T03:34:08.425Z,1013.22
2018-09-09T03:34:43.989Z,1013.19
2018-09-09T03:35:19.422Z,1013.12
2018-09-09T03:35:54.899Z,1013.11
2018-09-09T03:36:30.354Z,1013.08
2018-09-09T03:37:05.991Z,1013.09
2018-09-09T03:37:41.518Z,1013.06
2018-09-09T03:38:16.929Z,1013.03
2018-09-09T03:38:52.477Z,1013.04
2018-09-09T03:39:28.127Z,1013.03
2018-09-09T03:40:03.542Z,1013.04
2018-09-09T03:40:38.799Z,1013.02
2018-09-09T03:41:14.111Z,1013.05
2018-09-09T03:41:49.655Z,1013.08
2018-09-09T03:42:25.027Z,1013.10
2018-09-09T03:43:00.464Z,1013.06
2018-09-09T03:43:35.601Z,1013.05
2018-09-09T03:44:11.016Z,1013.08
2018-09-09T03:44:46.255Z,1013.06
2018-09-09T03:45:21.763Z,1013.07
2018-09-09T03:45:57.381Z,1013.10
2018-09-09T03:46:32.762Z,1013.07
2018-09-09T03:47:08.399Z,1013.10
2018-09-09T03:47:43.605Z,1013.13
2018-09-09T03:48:19.216Z,1013.13
2018-09-09T03:48:54.967Z,1013.16
2018-09-09T03:49:30.478Z,1013.13
2018-09-09T03:50:05.818Z,1013.12
2018-09-09T03:50:41.146Z,1013.10
2018-09-09T03:51:16.382Z,1013.10
2018-09-09T03:51:51.732Z,1013.09
2018-09-09T03:52:27.308Z,1013.08
2018-09-09T03:53:02.712Z,1013.09
2018-09-09T03:53:38.401Z,1013.15
2018-09-09T03:54:13.928Z,1013.16
2018-09-09T03:54:49.183Z,1013.15
2018-09-09T03:55:24.614Z,1013.15
2018-09-09T03:56:00.132Z,1013.12
2018-09-09T03:56:35.257Z,1013.14
2018-09-09T03:57:10.655Z,1013.14
2018-09-09T03:57:46.024Z,1013.18
2018-09-09T03:58:21.434Z,1013.16
2018-09-09T03:58:56.802Z,1013.21
2018-09-09T03:59:32.236Z,1013.21
2018-09-09T04:00:07.445Z,1013.22
2018-09-09T04:00:43.087Z,1013.25
2018-09-09T04:01:18.603Z,1013.24
2018-09-09T04:01:53.652Z,1013.24
2018-09-09T04:02:29.057Z,1013.25
2018-09-09T04:03:04.623Z,1013.23
2018-09-09T04:03:40.024Z,1013.25
2018-09-09T04:04:15.752Z,1013.27
2018-09-09T04:04:50.888Z,1013.26
2018-09-09T04:05:26.399Z,1013.26
2018-09-09T04:06:01.735Z,1013.26
2018-09-09T04:06:37.266Z,1013.27
2018-09-09T04:07:15.813Z,1013.27
2018-09-09T04:07:51.339Z,1013.27
2018-09-09T04:08:26.603Z,1013.28
2018-09-09T04:09:01.974Z,1013.27
2018-09-09T04:09:37.635Z,1013.28
2018-09-09T04:10:12.992Z,1013.29
2018-09-09T04:10:48.369Z,1013.29
2018-09-09T04:11:23.572Z,1013.29
2018-09-09T04:11:58.988Z,1013.28
2018-09-09T04:12:34.232Z,1013.31
2018-09-09T04:13:09.590Z,1013.30
2018-09-09T04:13:44.982Z,1013.33
2018-09-09T04:14:20.284Z,1013.36
2018-09-09T04:14:55.406Z,1013.37
2018-09-09T04:15:31.122Z,1013.36
2018-09-09T04:16:06.867Z,1013.36
2018-09-09T04:16:42.203Z,1013.32
2018-09-09T04:17:17.856Z,1013.31
2018-09-09T04:17:53.074Z,1013.32
2018-09-09T04:18:28.390Z,1013.32
2018-09-09T04:19:04.049Z,1013.31
2018-09-09T04:19:39.282Z,1013.32
2018-09-09T04:20:14.729Z,1013.30
2018-09-09T04:20:50.054Z,1013.31
2018-09-09T04:21:25.402Z,1013.32
2018-09-09T04:22:01.262Z,1013.35
2018-09-09T04:22:36.597Z,1013.36
2018-09-09T04:23:12.033Z,1013.38
2018-09-09T04:23:47.363Z,1013.35
2018-09-09T04:24:22.791Z,1013.33
2018-09-09T04:24:58.205Z,1013.35
2018-09-09T04:25:33.129Z,1013.37
2018-09-09T04:26:08.763Z,1013.36
2018-09-09T04:26:44.293Z,1013.39
2018-09-09T04:27:19.532Z,1013.36
2018-09-09T04:27:54.859Z,1013.35
2018-09-09T04:28:30.384Z,1013.36
2018-09-09T04:29:05.596Z,1013.36
2018-09-09T04:29:41.014Z,1013.34
2018-09-09T04:30:16.657Z,1013.34
2018-09-09T04:30:52.325Z,1013.32
2018-09-09T04:31:27.519Z,1013.29
2018-09-09T04:32:03.081Z,1013.28
2018-09-09T04:32:38.596Z,1013.29
2018-09-09T04:33:14.017Z,1013.29
2018-09-09T04:33:49.249Z,1013.29
2018-09-09T04:34:24.679Z,1013.31
2018-09-09T04:34:59.726Z,1013.29
2018-09-09T04:35:35.044Z,1013.28
2018-09-09T04:36:10.168Z,1013.29
2018-09-09T04:36:45.787Z,1013.32
2018-09-09T04:37:20.999Z,1013.29
2018-09-09T04:37:56.231Z,1013.28
2018-09-09T04:38:31.464Z,1013.30
2018-09-09T04:39:06.855Z,1013.29
2018-09-09T04:39:42.340Z,1013.35
2018-09-09T04:40:17.815Z,1013.33
2018-09-09T04:40:53.557Z,1013.31
2018-09-09T04:41:29.153Z,1013.32
2018-09-09T04:42:04.474Z,1013.32
2018-09-09T04:42:39.888Z,1013.31
2018-09-09T04:43:15.304Z,1013.32
2018-09-09T04:43:50.747Z,1013.30
2018-09-09T04:44:26.295Z,1013.33
2018-09-09T04:45:01.407Z,1013.29
2018-09-09T04:45:36.559Z,1013.29
2018-09-09T04:46:11.787Z,1013.31
2018-09-09T04:46:47.114Z,1013.32
2018-09-09T04:47:22.467Z,1013.33
2018-09-09T04:47:57.561Z,1013.33
2018-09-09T04:48:33.000Z,1013.34
2018-09-09T04:49:08.131Z,1013.33
2018-09-09T04:49:43.803Z,1013.33
2018-09-09T04:50:18.937Z,1013.39
2018-09-09T04:50:54.303Z,1013.39
2018-09-09T04:51:29.621Z,1013.36
2018-09-09T04:52:05.147Z,1013.34
2018-09-09T04:52:40.494Z,1013.36
2018-09-09T04:53:15.823Z,1013.34
2018-09-09T04:53:51.429Z,1013.32
2018-09-09T04:54:26.763Z,1013.31
2018-09-09T04:55:02.464Z,1013.33
2018-09-09T04:55:37.810Z,1013.32
2018-09-09T04:56:13.254Z,1013.35
2018-09-09T04:56:48.472Z,1013.36
2018-09-09T04:57:23.829Z,1013.37
2018-09-09T04:57:59.051Z,1013.41
2018-09-09T04:58:34.189Z,1013.41
2018-09-09T04:59:09.837Z,1013.42
2018-09-09T04:59:45.136Z,1013.38
2018-09-09T05:00:20.289Z,1013.36
2018-09-09T05:00:55.583Z,1013.35
2018-09-09T05:01:30.855Z,1013.32
2018-09-09T05:02:06.086Z,1013.34
2018-09-09T05:02:41.625Z,1013.36
2018-09-09T05:03:17.084Z,1013.38
2018-09-09T05:03:53.257Z,1013.38
2018-09-09T05:04:28.718Z,1013.39
2018-09-09T05:05:04.040Z,1013.37
2018-09-09T05:05:39.469Z,1013.41
2018-09-09T05:06:14.687Z,1013.41
2018-09-09T05:06:50.121Z,1013.44
2018-09-09T05:07:25.390Z,1013.45
2018-09-09T05:08:00.504Z,1013.45
2018-09-09T05:08:36.367Z,1013.48
2018-09-09T05:09:11.850Z,1013.46
2018-09-09T05:09:47.162Z,1013.46
2018-09-09T05:10:22.733Z,1013.50
2018-09-09T05:10:57.946Z,1013.52
2018-09-09T05:11:33.288Z,1013.55
2018-09-09T05:12:08.573Z,1013.54
2018-09-09T05:12:44.076Z,1013.52
2018-09-09T05:13:19.619Z,1013.57
2018-09-09T05:13:54.938Z,1013.54
2018-09-09T05:14:30.416Z,1013.56
2018-09-09T05:15:06.008Z,1013.53
2018-09-09T05:15:41.456Z,1013.55
2018-09-09T05:16:16.479Z,1013.52
2018-09-09T05:16:51.869Z,1013.49
2018-09-09T05:17:27.436Z,1013.51
2018-09-09T05:18:02.973Z,1013.54
2018-09-09T05:18:38.436Z,1013.59
2018-09-09T05:19:14.293Z,1013.56
2018-09-09T05:19:49.483Z,1013.60
2018-09-09T05:20:25.043Z,1013.57
2018-09-09T05:21:00.337Z,1013.58
2018-09-09T05:21:35.461Z,1013.65
2018-09-09T05:22:10.674Z,1013.65
2018-09-09T05:22:46.300Z,1013.66
2018-09-09T05:23:21.957Z,1013.66
2018-09-09T05:23:57.465Z,1013.64
2018-09-09T05:24:33.081Z,1013.64
2018-09-09T05:25:08.421Z,1013.63
2018-09-09T05:25:43.727Z,1013.63
2018-09-09T05:26:19.160Z,1013.66
2018-09-09T05:26:54.368Z,1013.70
2018-09-09T05:27:29.924Z,1013.71
2018-09-09T05:28:05.385Z,1013.73
2018-09-09T05:28:41.017Z,1013.76
2018-09-09T05:29:16.256Z,1013.75
2018-09-09T05:29:51.501Z,1013.75
2018-09-09T05:30:26.760Z,1013.75
2018-09-09T05:31:02.464Z,1013.73
2018-09-09T05:31:37.590Z,1013.79
2018-09-09T05:32:12.806Z,1013.79
2018-09-09T05:32:48.444Z,1013.81
2018-09-09T05:33:23.746Z,1013.80
2018-09-09T05:33:59.094Z,1013.78
2018-09-09T05:34:34.337Z,1013.79
2018-09-09T05:35:10.046Z,1013.78
2018-09-09T05:35:45.441Z,1013.76
2018-09-09T05:36:20.963Z,1013.78
2018-09-09T05:36:56.183Z,1013.75
2018-09-09T05:37:31.515Z,1013.74
2018-09-09T05:38:06.838Z,1013.73
2018-09-09T05:38:42.322Z,1013.71
2018-09-09T05:39:17.686Z,1013.74
2018-09-09T05:39:53.090Z,1013.74
2018-09-09T05:40:28.283Z,1013.76
2018-09-09T05:41:03.833Z,1013.76
2018-09-09T05:41:39.257Z,1013.75
2018-09-09T05:42:14.472Z,1013.74
2018-09-09T05:42:49.788Z,1013.70
2018-09-09T05:43:25.292Z,1013.73
2018-09-09T05:44:00.652Z,1013.70
2018-09-09T05:44:36.137Z,1013.72
2018-09-09T05:45:11.801Z,1013.73
2018-09-09T05:45:47.171Z,1013.75
2018-09-09T05:46:22.173Z,1013.74
2018-09-09T05:46:57.795Z,1013.73
2018-09-09T05:47:33.002Z,1013.71
2018-09-09T05:48:08.248Z,1013.73
2018-09-09T05:48:43.621Z,1013.73
2018-09-09T05:49:19.247Z,1013.74
2018-09-09T05:49:54.621Z,1013.77
2018-09-09T05:50:30.030Z,1013.75
2018-09-09T05:51:05.379Z,1013.77
2018-09-09T05:51:40.515Z,1013.81
2018-09-09T05:52:16.214Z,1013.81
2018-09-09T05:52:51.277Z,1013.81
2018-09-09T05:53:26.709Z,1013.82
2018-09-09T05:54:01.976Z,1013.77
2018-09-09T05:54:37.502Z,1013.82
2018-09-09T05:55:12.768Z,1013.85
2018-09-09T05:55:48.314Z,1013.84
2018-09-09T05:56:23.411Z,1013.87
2018-09-09T05:56:58.849Z,1013.86
2018-09-09T05:57:34.214Z,1013.88
2018-09-09T05:58:09.324Z,1013.84
2018-09-09T05:58:44.787Z,1013.87
2018-09-09T05:59:20.133Z,1013.87
2018-09-09T05:59:55.792Z,1013.87
2018-09-09T06:00:31.188Z,1013.86
2018-09-09T06:01:06.565Z,1013.85
2018-09-09T06:01:41.872Z,1013.88
2018-09-09T06:02:17.435Z,1013.86
2018-09-09T06:02:52.882Z,1013.85
2018-09-09T06:03:28.199Z,1013.88
2018-09-09T06:04:03.860Z,1013.87
2018-09-09T06:04:39.231Z,1013.84
2018-09-09T06:05:14.461Z,1013.85
2018-09-09T06:05:49.808Z,1013.83
2018-09-09T06:06:26.223Z,1013.82
2018-09-09T06:07:01.727Z,1013.83
2018-09-09T06:07:38.170Z,1013.81
2018-09-09T06:08:13.906Z,1013.81
2018-09-09T06:08:49.497Z,1013.80
2018-09-09T06:09:25.012Z,1013.80
2018-09-09T06:10:00.254Z,1013.79
2018-09-09T06:10:36.250Z,1013.78
2018-09-09T06:11:12.102Z,1013.77
2018-09-09T06:11:47.444Z,1013.80
2018-09-09T06:12:23.218Z,1013.81
2018-09-09T06:12:59.844Z,1013.82
2018-09-09T06:13:35.067Z,1013.81
2018-09-09T06:14:10.521Z,1013.83
2018-09-09T06:14:45.958Z,1013.85
2018-09-09T06:15:21.517Z,1013.83
2018-09-09T06:15:57.034Z,1013.80
2018-09-09T06:16:32.261Z,1013.82
2018-09-09T06:17:11.555Z,1013.79
2018-09-09T06:17:47.277Z,1013.79
2018-09-09T06:18:22.835Z,1013.82
2018-09-09T06:18:58.195Z,1013.79
2018-09-09T06:19:33.526Z,1013.81
2018-09-09T06:20:08.804Z,1013.77
2018-09-09T06:20:44.283Z,1013.84
2018-09-09T06:21:19.697Z,1013.84
2018-09-09T06:21:55.126Z,1013.84
2018-09-09T06:22:30.414Z,1013.84
2018-09-09T06:23:05.760Z,1013.85
2018-09-09T06:23:41.218Z,1013.87
2018-09-09T06:24:16.508Z,1013.89
2018-09-09T06:24:52.036Z,1013.92
2018-09-09T06:25:27.417Z,1013.90
2018-09-09T06:26:02.871Z,1013.96
2018-09-09T06:26:37.968Z,1013.89
2018-09-09T06:27:13.391Z,1013.96
2018-09-09T06:27:48.717Z,1013.92
2018-09-09T06:28:24.254Z,1013.97
2018-09-09T06:28:59.682Z,1013.95
2018-09-09T06:29:34.780Z,1013.98
2018-09-09T06:30:10.407Z,1013.97
2018-09-09T06:30:45.510Z,1013.93
2018-09-09T06:31:20.769Z,1013.96
2018-09-09T06:31:56.124Z,1013.98
2018-09-09T06:32:31.429Z,1014.02
2018-09-09T06:33:06.704Z,1014.01
2018-09-09T06:33:42.376Z,1014.03
2018-09-09T06:34:17.765Z,1013.99
2018-09-09T06:34:52.871Z,1014.02
2018-09-09T06:35:28.238Z,1014.00
2018-09-09T06:36:03.817Z,1014.05
2018-09-09T06:36:39.135Z,1014.04
2018-09-09T06:37:14.550Z,1014.05
2018-09-09T06:37:49.752Z,1014.04
2018-09-09T06:38:25.197Z,1014.05
2018-09-09T06:39:00.780Z,1014.04
2018-09-09T06:39:36.035Z,1014.01
2018-09-09T06:40:11.385Z,1014.05
2018-09-09T06:40:46.706Z,1014.05
2018-09-09T06:41:22.117Z,1014.08
2018-09-09T06:41:57.505Z,1014.09
2018-09-09T06:42:32.832Z,1014.12
2018-09-09T06:43:08.201Z,1014.11
2018-09-09T06:43:43.517Z,1014.12
2018-09-09T06:44:18.747Z,1014.17
2018-09-09T06:44:54.110Z,1014.18
2018-09-09T06:45:29.256Z,1014.15
2018-09-09T06:46:04.521Z,1014.14
2018-09-09T06:46:39.837Z,1014.14
2018-09-09T06:47:15.217Z,1014.18
2018-09-09T06:47:50.423Z,1014.14
2018-09-09T06:48:25.742Z,1014.15
2018-09-09T06:49:01.104Z,1014.12
2018-09-09T06:49:36.751Z,1014.18
2018-09-09T06:50:12.122Z,1014.16
2018-09-09T06:50:47.534Z,1014.16
2018-09-09T06:51:22.983Z,1014.20
2018-09-09T06:51:58.421Z,1014.21
2018-09-09T06:52:33.674Z,1014.19
2018-09-09T06:53:09.215Z,1014.16
2018-09-09T06:53:44.223Z,1014.23
2018-09-09T06:54:19.638Z,1014.20
2018-09-09T06:54:55.081Z,1014.16
2018-09-09T06:55:30.201Z,1014.16
2018-09-09T06:56:05.752Z,1014.16
2018-09-09T06:56:41.042Z,1014.15
2018-09-09T06:57:16.487Z,1014.17
2018-09-09T06:57:52.040Z,1014.13
2018-09-09T06:58:27.387Z,1014.14
2018-09-09T06:59:02.960Z,1014.14
2018-09-09T06:59:38.079Z,1014.13
2018-09-09T07:00:13.314Z,1014.16
2018-09-09T07:00:48.730Z,1014.17
2018-09-09T07:01:24.146Z,1014.19
2018-09-09T07:01:59.590Z,1014.20
2018-09-09T07:02:35.002Z,1014.16
2018-09-09T07:03:10.574Z,1014.17
2018-09-09T07:03:45.909Z,1014.14
2018-09-09T07:04:21.130Z,1014.16
2018-09-09T07:04:56.469Z,1014.16
2018-09-09T07:05:31.689Z,1014.21
2018-09-09T07:06:06.942Z,1014.22
2018-09-09T07:06:42.234Z,1014.19
2018-09-09T07:07:18.160Z,1014.21
2018-09-09T07:07:53.469Z,1014.21